This is the latest recevied weather packets stored in our database for station/object DC7RY. If no packets are shown the sender has not sent any weather packets the latest 1 day(s).
| Time | Temp. | Humidity | Pressure | Rain* | Wind** | Luminosity | Snow |
|---|---|---|---|---|---|---|---|
| 1778064029 | 18.89° C | 66% | 1000.9 hPa | 0 mm | - | 364 W/m² | - |
| 1778063420 | 18.33° C | 70% | 1000.9 hPa | 0 mm | - | 304 W/m² | - |
| 1778062828 | 17.78° C | 70% | 1000.9 hPa | 0 mm | - | 274 W/m² | - |
| 1778062220 | 17.22° C | 74% | 1000.9 hPa | 0 mm | - | 225 W/m² | - |
| 1778061628 | 16.67° C | 76% | 1001 hPa | 0 mm | - | 214 W/m² | - |
| 1778061020 | 16.67° C | 75% | 1001 hPa | 0 mm | - | 163 W/m² | - |
| 1778060428 | 16.67° C | 76% | 1001.2 hPa | 0 mm | - | 145 W/m² | - |
| 1778059820 | 16.67° C | 75% | 1001.2 hPa | 0 mm | - | 139 W/m² | - |
| 1778055624 | 15° C | 86% | 1000.5 hPa | 0 mm | - | 162 W/m² | - |
| 1778054423 | 13.89° C | 93% | 1000.4 hPa | 0 mm | - | 139 W/m² | - |
| 1778053222 | 13.89° C | 99% | 1000.3 hPa | 0 mm | - | 170 W/m² | - |
| 1778047827 | 12.78° C | 99% | 1000.3 hPa | 0 mm | - | 39 W/m² | - |
| 1778044832 | 11.67° C | 99% | 1000.4 hPa | 0 mm | - | 38 W/m² | - |
| 1778044223 | 11.67° C | 99% | 1000.7 hPa | 0 mm | - | 54 W/m² | - |
| 1778043023 | 11.67° C | 99% | 1000.6 hPa | 0 mm | - | 23 W/m² | - |
| 1778042430 | 11.67° C | 99% | 1000.5 hPa | 0 mm | - | 27 W/m² | - |
| 1778041821 | 11.67° C | 99% | 1000.3 hPa | 0 mm | - | 24 W/m² | - |
| 1778041228 | 11.67° C | 99% | 1000.5 hPa | 0 mm | - | 11 W/m² | - |
| 1778040620 | 11.67° C | 99% | 1000.4 hPa | 0 mm | - | 6 W/m² | - |
| 1778039419 | 11.67° C | 99% | 1000.3 hPa | 0 mm | - | 0 W/m² | - |
| 1778038825 | 11.67° C | 99% | 1000.3 hPa | 0 mm | - | 0 W/m² | - |
| 1778038217 | 11.67° C | 99% | 1000.3 hPa | 0 mm | - | 0 W/m² | - |
| 1778037625 | 11.67° C | 99% | 1000.3 hPa | 0 mm | - | 0 W/m² | - |
| 1778037017 | 11.67° C | 99% | 1000.3 hPa | 0 mm | - | 0 W/m² | - |
| 1778036424 | 11.67° C | 99% | 1000.4 hPa | 0 mm | - | 0 W/m² | - |
* Rain latest hour (hover to see other rain measurements)
** Current wind speed in m/s (hover to see current wind gust speed)